createdAt,value
2019-05-03T00:02:16.230Z,82.26
2019-05-03T00:07:19.755Z,84.61
2019-05-03T00:12:23.212Z,84.22
2019-05-03T00:17:26.712Z,83.43
2019-05-03T00:22:32.296Z,84.16
2019-05-03T00:27:35.346Z,83.44
2019-05-03T00:32:38.900Z,83.33
2019-05-03T00:37:44.055Z,84.38
2019-05-03T00:42:47.662Z,84.07
2019-05-03T00:47:52.735Z,83.15
2019-05-03T00:52:56.341Z,82.42
2019-05-03T00:57:59.785Z,82.27
2019-05-03T01:03:03.311Z,83.52
2019-05-03T01:08:06.763Z,83.26
2019-05-03T01:13:12.226Z,83.75
2019-05-03T01:18:17.078Z,83.76
2019-05-03T01:23:21.890Z,84.33
2019-05-03T01:28:25.486Z,87.01
2019-05-03T01:33:29.087Z,87.46
2019-05-03T01:38:32.565Z,89.31
2019-05-03T01:43:36.004Z,86.89
2019-05-03T01:48:41.628Z,84.75
2019-05-03T01:53:45.127Z,83.67
2019-05-03T01:58:48.568Z,83.53
2019-05-03T02:04:09.939Z,83.63
2019-05-03T02:09:13.449Z,84.19
2019-05-03T02:14:16.897Z,85.12
2019-05-03T02:19:22.004Z,86.19
2019-05-03T02:24:25.566Z,86.92
2019-05-03T02:29:28.990Z,85.71
2019-05-03T02:34:32.903Z,85.10
2019-05-03T02:39:36.488Z,87.72
2019-05-03T02:44:40.402Z,86.82
2019-05-03T02:49:45.692Z,86.31
2019-05-03T02:54:49.125Z,85.60
2019-05-03T02:59:54.833Z,83.81
2019-05-03T03:04:58.462Z,84.90
2019-05-03T03:10:05.159Z,83.77
2019-05-03T03:15:08.954Z,84.33
2019-05-03T03:20:12.636Z,83.59
2019-05-03T03:25:17.915Z,84.91
2019-05-03T03:30:38.811Z,84.15
2019-05-03T03:35:48.406Z,83.57
2019-05-03T03:40:50.941Z,82.81
2019-05-03T03:45:55.682Z,82.87
2019-05-03T03:51:01.225Z,81.09
2019-05-03T03:56:05.550Z,80.51
2019-05-03T04:01:09.358Z,79.78
2019-05-03T04:06:15.267Z,79.24
2019-05-03T04:11:18.254Z,78.73
2019-05-03T04:16:25.929Z,79.56
2019-05-03T04:21:28.899Z,79.74
2019-05-03T04:26:32.798Z,75.49
2019-05-03T04:31:36.922Z,75.87
2019-05-03T04:36:40.426Z,76.34
2019-05-03T04:41:45.303Z,78.65
2019-05-03T04:46:48.884Z,78.25
2019-05-03T04:51:52.392Z,77.41
2019-05-03T04:56:56.239Z,75.30
2019-05-03T05:01:59.894Z,76.48
2019-05-03T05:07:05.942Z,75.07
2019-05-03T05:12:08.809Z,75.44
2019-05-03T05:17:16.372Z,75.81
2019-05-03T05:22:20.722Z,75.53
2019-05-03T05:27:25.839Z,75.77
2019-05-03T05:32:29.211Z,74.95
2019-05-03T05:37:32.643Z,75.24
2019-05-03T05:42:36.059Z,72.48
2019-05-03T05:47:41.130Z,73.00
2019-05-03T05:52:44.911Z,72.97
2019-05-03T05:58:02.907Z,75.07
2019-05-03T06:03:00.958Z,73.04
2019-05-03T06:08:11.922Z,69.54
2019-05-03T06:13:16.979Z,68.54
2019-05-03T06:18:25.172Z,70.49
2019-05-03T06:23:38.842Z,67.81
2019-05-03T06:28:42.253Z,69.14
2019-05-03T06:33:45.678Z,71.16
2019-05-03T06:38:49.087Z,70.22
2019-05-03T06:43:52.508Z,69.36
2019-05-03T06:48:55.943Z,67.62
2019-05-03T06:53:59.363Z,68.27
2019-05-03T06:59:05.256Z,65.14
2019-05-03T07:04:15.980Z,63.15
2019-05-03T07:09:36.086Z,63.80
2019-05-03T07:14:39.536Z,62.99
2019-05-03T07:19:42.964Z,63.46
2019-05-03T07:24:46.389Z,58.99
2019-05-03T07:29:49.818Z,61.92
2019-05-03T07:34:53.235Z,60.50
2019-05-03T07:39:56.660Z,59.53
2019-05-03T07:45:00.087Z,59.67
2019-05-03T07:50:04.980Z,59.30
2019-05-03T07:55:08.633Z,58.69
2019-05-03T08:00:15.048Z,55.48
2019-05-03T08:05:18.617Z,58.57
2019-05-03T08:10:22.154Z,56.06
2019-05-03T08:15:25.558Z,52.50
2019-05-03T08:20:28.999Z,53.61
2019-05-03T08:25:32.421Z,54.03
2019-05-03T08:30:37.535Z,57.02
2019-05-03T08:35:44.700Z,53.17
2019-05-03T08:40:48.505Z,51.17
2019-05-03T08:45:51.930Z,49.47
2019-05-03T08:50:55.522Z,51.60
2019-05-03T08:55:58.854Z,47.69
2019-05-03T09:01:05.314Z,48.60
2019-05-03T09:06:08.311Z,46.66
2019-05-03T09:11:15.402Z,49.67
2019-05-03T09:16:18.618Z,51.73
2019-05-03T09:21:22.044Z,50.71
2019-05-03T09:26:29.123Z,50.28
2019-05-03T09:31:30.725Z,51.17
2019-05-03T09:36:34.512Z,46.92
2019-05-03T09:41:38.038Z,47.88
2019-05-03T09:46:41.446Z,46.49
2019-05-03T09:51:44.899Z,47.85
2019-05-03T09:56:58.758Z,46.95
2019-05-03T10:02:04.765Z,48.72
2019-05-03T10:07:08.242Z,44.54
2019-05-03T10:12:13.313Z,44.14
2019-05-03T10:17:21.143Z,42.65
2019-05-03T10:22:28.702Z,42.84
2019-05-03T10:27:47.403Z,45.51
2019-05-03T10:33:01.335Z,47.87
2019-05-03T10:38:05.785Z,45.06
2019-05-03T10:43:10.445Z,47.97
2019-05-03T10:48:15.509Z,45.10
2019-05-03T10:53:23.371Z,44.91
2019-05-03T10:58:26.792Z,42.90
2019-05-03T11:03:30.376Z,44.16
2019-05-03T11:08:33.812Z,44.38
2019-05-03T11:13:37.234Z,45.10
2019-05-03T11:18:40.654Z,45.61
2019-05-03T11:23:45.065Z,45.49
2019-05-03T11:28:48.564Z,45.20
2019-05-03T11:33:52.735Z,43.06
2019-05-03T11:38:56.433Z,40.63
2019-05-03T11:44:01.499Z,41.34
2019-05-03T11:49:05.622Z,43.63
2019-05-03T11:54:09.833Z,41.39
2019-05-03T11:59:14.785Z,43.10
2019-05-03T12:04:18.270Z,40.86
2019-05-03T12:09:21.692Z,38.79
2019-05-03T12:14:25.131Z,39.49
2019-05-03T12:19:31.375Z,40.08
2019-05-03T12:24:35.969Z,40.59
2019-05-03T12:29:38.924Z,39.41
2019-05-03T12:34:42.409Z,39.91
2019-05-03T12:39:45.824Z,39.14
2019-05-03T12:44:49.254Z,34.07
2019-05-03T12:49:52.672Z,34.06
2019-05-03T12:54:56.092Z,35.28
2019-05-03T13:00:15.526Z,37.47
2019-05-03T13:05:18.765Z,37.00
2019-05-03T13:10:25.994Z,37.90
2019-05-03T13:15:27.878Z,36.87
2019-05-03T13:20:31.323Z,38.32
2019-05-03T13:25:35.618Z,37.20
2019-05-03T13:30:39.212Z,36.27
2019-05-03T13:35:44.527Z,36.19
2019-05-03T13:40:47.916Z,36.65
2019-05-03T13:45:51.336Z,36.40
2019-05-03T13:50:55.216Z,37.04
2019-05-03T13:55:58.645Z,38.04
2019-05-03T14:01:02.057Z,38.18
2019-05-03T14:06:08.597Z,38.96
2019-05-03T14:11:10.692Z,38.52
2019-05-03T14:16:14.477Z,38.18
2019-05-03T14:21:24.322Z,39.09
2019-05-03T14:26:27.604Z,41.16
2019-05-03T14:31:31.038Z,41.23
2019-05-03T14:36:35.855Z,39.84
2019-05-03T14:41:39.547Z,41.24
2019-05-03T14:46:42.991Z,41.29
2019-05-03T14:51:46.475Z,42.05
2019-05-03T14:57:03.475Z,41.63
2019-05-03T15:02:11.568Z,42.54
2019-05-03T15:07:15.413Z,42.68
2019-05-03T15:12:18.866Z,43.04
2019-05-03T15:17:24.560Z,44.70
2019-05-03T15:22:27.423Z,44.71
2019-05-03T15:27:30.846Z,43.48
2019-05-03T15:32:35.368Z,43.31
2019-05-03T15:37:38.878Z,42.15
2019-05-03T15:42:45.106Z,42.79
2019-05-03T15:48:06.492Z,43.85
2019-05-03T15:53:15.160Z,43.25
2019-05-03T15:58:18.636Z,43.85
2019-05-03T16:03:22.063Z,43.54
2019-05-03T16:08:25.510Z,44.35
2019-05-03T16:13:28.957Z,44.91
2019-05-03T16:18:32.441Z,45.14
2019-05-03T16:54:28.997Z,44.99
2019-05-03T17:16:10.999Z,43.83
2019-05-03T17:21:16.209Z,44.98
2019-05-03T17:26:19.569Z,46.26
2019-05-03T17:31:24.364Z,45.79
2019-05-03T17:36:27.885Z,45.44
2019-05-03T17:41:34.631Z,45.28
2019-05-03T17:46:38.266Z,46.26
2019-05-03T17:51:49.095Z,46.91
2019-05-03T17:56:55.155Z,46.59
2019-05-03T18:02:16.342Z,46.98
2019-05-03T18:07:34.963Z,48.64
2019-05-03T18:12:38.450Z,47.48
2019-05-03T18:17:41.869Z,50.04
2019-05-03T18:22:45.458Z,49.65
2019-05-03T18:27:48.915Z,50.37
2019-05-03T18:46:18.278Z,53.88
2019-05-03T18:51:21.693Z,52.41
2019-05-03T18:56:25.313Z,52.39
2019-05-03T19:01:28.722Z,51.98
2019-05-03T19:06:32.240Z,52.56
2019-05-03T19:11:39.974Z,53.59
2019-05-03T19:16:54.514Z,54.11
2019-05-03T19:21:58.066Z,54.00
2019-05-03T19:27:01.485Z,54.42
2019-05-03T19:32:05.051Z,54.44
2019-05-03T19:37:08.524Z,54.62
2019-05-03T19:42:12.028Z,54.78
2019-05-03T19:47:15.803Z,54.48
2019-05-03T19:52:20.922Z,55.52
2019-05-03T19:57:26.027Z,55.97
2019-05-03T20:02:39.996Z,55.34
2019-05-03T20:07:45.243Z,55.84
2019-05-03T20:12:48.671Z,59.87
2019-05-03T20:17:59.129Z,62.34
2019-05-03T20:22:58.988Z,62.56
2019-05-03T20:28:02.569Z,62.60
2019-05-03T20:33:06.021Z,63.54
2019-05-03T20:38:09.480Z,62.87
2019-05-03T20:43:14.521Z,62.77
2019-05-03T20:48:19.583Z,63.33
2019-05-03T20:53:24.997Z,63.86
2019-05-03T20:58:28.180Z,64.52
2019-05-03T21:03:31.613Z,65.06
2019-05-03T21:08:35.032Z,66.53
2019-05-03T21:13:41.985Z,65.82
2019-05-03T21:18:45.241Z,68.84
2019-05-03T21:24:06.527Z,70.66
2019-05-03T21:29:10.287Z,70.54
2019-05-03T21:34:14.793Z,71.03
2019-05-03T21:39:18.319Z,70.21
2019-05-03T21:44:29.044Z,70.92
2019-05-03T21:49:46.161Z,70.95
2019-05-03T21:54:49.573Z,71.88
2019-05-03T21:59:54.997Z,73.47
2019-05-03T22:04:58.530Z,73.62
2019-05-03T22:10:01.985Z,74.02
2019-05-03T22:15:14.982Z,75.27
2019-05-03T22:20:36.482Z,76.08
2019-05-03T22:25:41.545Z,79.30
2019-05-03T22:30:48.094Z,83.48
2019-05-03T22:36:05.510Z,83.36
2019-05-03T22:40:58.279Z,83.18
2019-05-03T22:46:01.712Z,87.54
2019-05-03T22:51:05.141Z,85.58
2019-05-03T22:56:08.549Z,83.36
2019-05-03T23:01:11.986Z,81.70
2019-05-03T23:06:22.430Z,82.49
2019-05-03T23:11:20.571Z,83.60
2019-05-03T23:16:24.739Z,82.70
2019-05-03T23:26:41.537Z,84.91
2019-05-03T23:31:45.143Z,81.02
2019-05-03T23:36:48.554Z,80.94
2019-05-03T23:41:52.046Z,83.60
2019-05-03T23:47:05.086Z,81.15
2019-05-03T23:52:28.149Z,80.47
2019-05-03T23:57:31.589Z,82.15
